Time;durP1;ratioP1;P1;durP2;ratioP2;P2;SDS_P1;SDS_P2;PMS_P1;PMS_P2;Temp;Humidity;BMP_temperature;BMP_pressure;BME280_temperature;BME280_humidity;BME280_pressure;Samples;Min_cycle;Max_cycle;Signal;HPM_P1;HPM_P2
2022/04/26 03:37:41;;;;;;;12.70;4.10;;;7.40;99.90;;;;;;6175860;23;20080;-76
2022/04/26 03:40:11;;;;;;;11.90;4.47;;;7.40;99.90;;;;;;6174855;23;20063;-78
2022/04/26 03:42:37;;;;;;;11.05;3.83;;;7.40;99.90;;;;;;6139601;23;20067;-76
2022/04/26 03:45:03;;;;;;;9.82;3.53;;;7.40;99.90;;;;;;6184040;23;20021;-76
2022/04/26 03:47:29;;;;;;;11.18;3.72;;;7.40;99.90;;;;;;6183955;23;20033;-77
2022/04/26 03:49:55;;;;;;;11.13;4.10;;;7.40;99.90;;;;;;6184023;23;20334;-76
2022/04/26 03:52:21;;;;;;;17.13;4.47;;;7.40;99.90;;;;;;6182059;23;20418;-77
2022/04/26 03:54:46;;;;;;;18.67;4.38;;;7.40;99.90;;;;;;6232419;23;20039;-75
2022/04/26 03:57:18;;;;;;;10.75;3.67;;;7.40;99.90;;;;;;6232409;23;20025;-78
2022/04/26 03:59:45;;;;;;;15.85;4.40;;;7.40;99.90;;;;;;6156653;23;20104;-77
2022/04/26 04:02:14;;;;;;;12.68;4.13;;;7.40;99.90;;;;;;6230715;23;20029;-75
2022/04/26 04:04:43;;;;;;;13.13;4.45;;;7.40;99.90;;;;;;6230778;23;20028;-78
2022/04/26 04:07:10;;;;;;;13.38;3.60;;;7.30;99.90;;;;;;6181836;23;20056;-78
2022/04/26 04:09:36;;;;;;;15.57;3.85;;;7.40;99.90;;;;;;6156882;23;20482;-75
2022/04/26 04:12:02;;;;;;;13.63;3.97;;;7.30;99.90;;;;;;6232152;23;20522;-76
2022/04/26 04:14:28;;;;;;;6.82;3.60;;;7.40;99.90;;;;;;6183661;23;20029;-76
2022/04/26 04:16:56;;;;;;;17.98;4.65;;;7.40;99.90;;;;;;6181858;23;20029;-76
2022/04/26 04:19:25;;;;;;;12.57;3.65;;;7.40;99.90;;;;;;6231908;23;20467;-76
2022/04/26 04:21:54;;;;;;;9.77;3.60;;;7.40;99.90;;;;;;6213727;23;20103;-77
2022/04/26 04:24:21;;;;;;;13.50;4.15;;;7.40;99.90;;;;;;6186136;23;20075;-78
2022/04/26 04:26:49;;;;;;;13.10;3.58;;;7.30;99.90;;;;;;6186961;23;20074;-77
2022/04/26 04:29:15;;;;;;;9.50;3.95;;;7.30;99.90;;;;;;6161658;23;20024;-76
2022/04/26 04:31:45;;;;;;;11.35;4.00;;;7.30;99.90;;;;;;6236485;23;20048;-76
2022/04/26 04:34:14;;;;;;;14.90;4.10;;;7.40;99.90;;;;;;6186472;23;20361;-78
2022/04/26 04:36:40;;;;;;;10.35;3.95;;;7.40;99.90;;;;;;6211173;23;20021;-77
2022/04/26 04:39:13;;;;;;;12.25;3.88;;;7.40;99.90;;;;;;6236000;23;20028;-78
2022/04/26 04:41:41;;;;;;;8.43;3.15;;;7.40;99.90;;;;;;6187444;23;20021;-77
2022/04/26 04:44:08;;;;;;;12.98;4.13;;;7.40;99.90;;;;;;6213878;23;20472;-78
2022/04/26 04:46:33;;;;;;;8.98;3.30;;;7.40;99.90;;;;;;6186072;23;20017;-78
2022/04/26 04:49:05;;;;;;;12.43;4.07;;;7.40;99.90;;;;;;6186204;23;20035;-75
2022/04/26 04:51:31;;;;;;;9.00;3.58;;;7.50;99.90;;;;;;6209820;23;20045;-76
2022/04/26 04:54:01;;;;;;;16.73;3.38;;;7.50;99.90;;;;;;6213379;23;20507;-77
2022/04/26 04:56:32;;;;;;;10.27;4.90;;;7.50;99.90;;;;;;6187316;23;20083;-77
2022/04/26 04:59:00;;;;;;;15.30;4.32;;;7.60;99.90;;;;;;6185705;23;20028;-78
2022/04/26 05:01:28;;;;;;;13.68;3.38;;;7.60;99.90;;;;;;6236845;23;20021;-76
2022/04/26 05:03:54;;;;;;;10.60;3.53;;;7.70;99.90;;;;;;6211422;23;20079;-76
2022/04/26 05:06:20;;;;;;;9.10;3.63;;;7.70;99.90;;;;;;6210794;23;20028;-75
2022/04/26 05:08:46;;;;;;;9.30;3.97;;;7.80;99.90;;;;;;6210706;23;20043;-76
2022/04/26 05:11:17;;;;;;;11.15;3.75;;;7.80;99.90;;;;;;6212793;23;20472;-79
2022/04/26 05:13:50;;;;;;;8.38;4.03;;;7.90;99.90;;;;;;6236807;23;20111;-77
2022/04/26 05:16:17;;;;;;;12.18;3.35;;;7.90;99.90;;;;;;6186644;23;20039;-78
2022/04/26 05:18:43;;;;;;;14.30;4.78;;;8.00;99.90;;;;;;6187954;23;20032;-76
2022/04/26 05:21:09;;;;;;;9.45;3.85;;;8.00;99.90;;;;;;6186575;23;20105;-79
2022/04/26 05:26:36;;;;;;;11.63;3.30;;;8.00;99.90;;;;;;6103096;23;20018;-77
2022/04/26 05:29:05;;;;;;;8.48;3.00;;;8.10;99.90;;;;;;6099279;23;20549;-77
2022/04/26 05:31:31;;;;;;;9.43;4.50;;;8.10;99.90;;;;;;6096324;23;20021;-76
2022/04/26 05:33:58;;;;;;;9.23;3.47;;;8.20;99.90;;;;;;6096565;23;20096;-77
2022/04/26 05:36:27;;;;;;;8.73;3.35;;;8.30;99.90;;;;;;6096194;23;20028;-77
2022/04/26 05:39:00;;;;;;;12.70;3.97;;;8.40;99.90;;;;;;6098308;23;20045;-77
2022/04/26 05:41:35;;;;;;;10.80;3.63;;;8.40;99.90;;;;;;6099357;23;20024;-77
2022/04/26 05:44:00;;;;;;;8.35;3.17;;;8.40;99.90;;;;;;6097878;23;20034;-77
2022/04/26 05:46:26;;;;;;;10.10;3.42;;;8.40;99.90;;;;;;6073635;23;20037;-79
2022/04/26 05:48:53;;;;;;;9.20;3.15;;;8.50;99.90;;;;;;6097859;23;20026;-78
2022/04/26 05:51:27;;;;;;;11.95;3.72;;;8.70;99.90;;;;;;6099476;23;20106;-76
2022/04/26 05:53:54;;;;;;;10.20;3.25;;;8.80;99.90;;;;;;6097666;23;20025;-77
2022/04/26 05:56:31;;;;;;;9.15;3.03;;;8.90;99.90;;;;;;6097734;23;20465;-78
2022/04/26 05:59:05;;;;;;;9.77;2.63;;;8.90;99.90;;;;;;6097965;23;20474;-76
2022/04/26 06:01:33;;;;;;;9.43;3.40;;;9.00;99.90;;;;;;6172524;23;20071;-76
2022/04/26 06:03:59;;;;;;;13.32;4.05;;;9.10;99.90;;;;;;6207665;23;20576;-76
2022/04/26 06:06:26;;;;;;;10.40;3.33;;;9.10;99.90;;;;;;6207599;23;20025;-77
2022/04/26 06:08:59;;;;;;;9.68;3.58;;;9.10;99.90;;;;;;6207886;23;20036;-77
2022/04/26 06:11:29;;;;;;;11.20;3.35;;;9.00;99.90;;;;;;6235313;22;20507;-75
2022/04/26 06:13:58;;;;;;;9.00;2.70;;;9.10;99.90;;;;;;6182957;23;20021;-77
2022/04/26 06:16:25;;;;;;;9.98;3.08;;;9.20;99.90;;;;;;6207201;23;20029;-77
2022/04/26 06:18:51;;;;;;;7.72;3.38;;;9.40;99.90;;;;;;6207699;23;20017;-76
2022/04/26 06:21:20;;;;;;;12.02;3.25;;;9.50;99.90;;;;;;6182656;23;20040;-78
2022/04/26 06:23:46;;;;;;;10.40;2.50;;;9.60;99.90;;;;;;6183246;23;20067;-77
2022/04/26 06:26:12;;;;;;;11.65;2.83;;;9.50;99.90;;;;;;6182878;23;20024;-77
2022/04/26 06:28:38;;;;;;;6.97;3.08;;;9.70;99.90;;;;;;6183046;23;20080;-78
2022/04/26 06:31:07;;;;;;;15.35;3.75;;;9.80;99.90;;;;;;6207806;23;20767;-76
2022/04/26 06:33:35;;;;;;;12.38;2.88;;;9.90;99.90;;;;;;6207626;23;20064;-78
2022/04/26 06:36:11;;;;;;;7.75;2.90;;;10.00;99.90;;;;;;6229233;23;20021;-77
2022/04/26 06:38:38;;;;;;;8.98;3.20;;;10.00;99.90;;;;;;6207753;23;20116;-76
2022/04/26 06:41:05;;;;;;;13.10;2.92;;;10.20;99.90;;;;;;6182421;23;20025;-76
2022/04/26 06:43:33;;;;;;;7.38;2.50;;;10.30;99.90;;;;;;6182341;23;20392;-76
2022/04/26 06:46:00;;;;;;;12.15;3.78;;;10.40;99.90;;;;;;6184540;23;20628;-76
2022/04/26 06:48:26;;;;;;;5.00;2.10;;;10.50;99.90;;;;;;6181902;23;20025;-76
2022/04/26 06:50:55;;;;;;;8.40;2.30;;;10.60;99.90;;;;;;6182283;23;20021;-77
2022/04/26 06:53:24;;;;;;;5.80;3.00;;;10.70;99.90;;;;;;6182719;23;20040;-76
2022/04/26 06:55:49;;;;;;;11.27;3.50;;;10.80;99.90;;;;;;6184446;23;20550;-77
2022/04/26 06:58:15;;;;;;;9.50;2.50;;;10.80;99.90;;;;;;6182433;23;20033;-77
2022/04/26 07:00:41;;;;;;;10.38;2.38;;;10.90;99.90;;;;;;6183044;23;20107;-76
2022/04/26 07:03:08;;;;;;;8.32;2.80;;;11.00;99.90;;;;;;6207825;23;20855;-76
2022/04/26 07:05:36;;;;;;;12.48;2.97;;;11.20;99.90;;;;;;6231943;23;20017;-75
2022/04/26 07:08:02;;;;;;;6.50;1.98;;;11.30;99.90;;;;;;6182464;23;20031;-77
2022/04/26 07:10:31;;;;;;;10.98;2.65;;;11.50;99.90;;;;;;6207262;23;20030;-76
2022/04/26 07:12:59;;;;;;;8.43;2.50;;;11.50;99.90;;;;;;6207236;23;20029;-78
2022/04/26 07:15:26;;;;;;;7.20;2.47;;;11.50;99.90;;;;;;6182356;23;20028;-78
2022/04/26 07:17:58;;;;;;;8.95;2.80;;;11.60;99.90;;;;;;6182139;23;20028;-76
2022/04/26 07:20:30;;;;;;;11.57;2.60;;;11.60;99.90;;;;;;6186590;23;20455;-76
2022/04/26 07:23:01;;;;;;;8.23;2.45;;;11.60;99.90;;;;;;6237526;23;20114;-77
2022/04/26 07:25:34;;;;;;;11.60;2.65;;;11.70;99.90;;;;;;6237408;23;20028;-77
2022/04/26 07:28:06;;;;;;;6.10;2.67;;;11.90;99.90;;;;;;6188236;23;20393;-75
2022/04/26 07:30:36;;;;;;;9.82;2.40;;;12.10;99.90;;;;;;6162075;23;20025;-76
2022/04/26 07:35:56;;;;;;;7.38;2.10;;;12.30;99.90;;;;;;6186488;23;20503;-77
2022/04/26 07:38:22;;;;;;;10.15;2.40;;;12.30;99.90;;;;;;6161783;23;20024;-77
2022/04/26 07:40:49;;;;;;;6.97;1.95;;;12.40;99.90;;;;;;6187130;23;20472;-75
2022/04/26 07:43:15;;;;;;;8.75;2.17;;;12.50;99.90;;;;;;6187073;23;20024;-77
2022/04/26 07:45:44;;;;;;;7.97;2.72;;;12.60;99.90;;;;;;6187152;23;20031;-75
2022/04/26 07:48:16;;;;;;;9.05;2.70;;;12.70;99.90;;;;;;6186883;23;20071;-77
2022/04/26 07:50:47;;;;;;;7.00;1.83;;;12.80;99.90;;;;;;6186201;23;20524;-76
2022/04/26 07:53:14;;;;;;;13.05;3.47;;;12.80;99.90;;;;;;6186978;23;20024;-76
2022/04/26 07:55:41;;;;;;;10.82;2.53;;;12.80;99.90;;;;;;6209733;23;20017;-76
2022/04/26 07:58:10;;;;;;;10.88;2.42;;;12.90;99.80;;;;;;6186503;23;20024;-76
2022/04/26 08:00:36;;;;;;;7.43;2.17;;;13.10;99.60;;;;;;6179797;23;20128;-76
2022/04/26 08:03:05;;;;;;;6.95;2.60;;;13.20;98.90;;;;;;6155209;23;20394;-77
2022/04/26 08:05:30;;;;;;;6.68;2.10;;;13.30;98.60;;;;;;6155937;23;20021;-75
2022/04/26 08:07:56;;;;;;;6.05;2.05;;;13.30;98.50;;;;;;6155417;23;20027;-78
2022/04/26 08:10:23;;;;;;;6.43;2.20;;;13.10;98.60;;;;;;6155455;23;20072;-77
2022/04/26 08:12:49;;;;;;;6.88;2.58;;;13.00;98.60;;;;;;6180720;23;20029;-75
2022/04/26 08:15:18;;;;;;;6.55;2.38;;;12.90;98.90;;;;;;6155375;23;20086;-77
2022/04/26 08:17:44;;;;;;;5.78;2.13;;;12.70;98.40;;;;;;6155155;23;20068;-76
2022/04/26 08:20:11;;;;;;;6.43;2.17;;;12.80;97.80;;;;;;6129937;23;20077;-79
2022/04/26 08:22:42;;;;;;;9.20;1.95;;;13.00;96.80;;;;;;6132515;23;20100;-77
2022/04/26 08:28:04;;;;;;;5.95;2.00;;;13.40;96.70;;;;;;6134250;23;20488;-75
2022/04/26 08:30:30;;;;;;;6.93;2.33;;;13.70;95.90;;;;;;6181373;23;20025;-76
2022/04/26 08:32:57;;;;;;;11.05;1.83;;;13.80;96.10;;;;;;6186585;23;20067;-77
2022/04/26 08:35:28;;;;;;;9.32;2.10;;;13.80;95.30;;;;;;6213213;23;20025;-74
2022/04/26 08:37:54;;;;;;;8.15;3.00;;;13.80;95.50;;;;;;6186904;23;20028;-76
2022/04/26 08:40:42;;;;;;;5.43;2.13;;;13.80;95.60;;;;;;6191147;23;20043;-76
2022/04/26 08:43:33;;;;;;;8.48;2.05;;;13.90;95.20;;;;;;6233073;23;20078;-78
2022/04/26 08:46:03;;;;;;;4.68;1.70;;;13.90;94.90;;;;;;6187863;23;20338;-77
2022/04/26 08:51:20;;;;;;;7.32;2.05;;;14.30;94.40;;;;;;6185299;23;20028;-77
2022/04/26 08:53:46;;;;;;;8.73;2.72;;;14.40;94.20;;;;;;6210798;23;20143;-76
2022/04/26 08:56:17;;;;;;;6.57;1.75;;;14.60;93.50;;;;;;6211726;23;20043;-75
2022/04/26 08:58:46;;;;;;;7.32;1.88;;;14.70;93.60;;;;;;6211316;23;20028;-77
2022/04/26 09:01:24;;;;;;;7.60;1.70;;;14.90;93.60;;;;;;6234061;23;20027;-77
2022/04/26 09:04:05;;;;;;;7.78;2.10;;;15.10;93.20;;;;;;6211730;23;20341;-79
2022/04/26 09:06:36;;;;;;;7.20;1.80;;;15.20;92.90;;;;;;6161554;23;20035;-76
2022/04/26 09:09:24;;;;;;;12.32;2.78;;;14.80;91.10;;;;;;6211550;23;20020;-76
2022/04/26 09:11:50;;;;;;;5.85;1.85;;;14.80;90.10;;;;;;6213092;23;20020;-78
2022/04/26 09:14:37;;;;;;;6.15;1.60;;;15.10;91.50;;;;;;6186725;23;20056;-80
2022/04/26 09:17:23;;;;;;;8.43;2.15;;;15.30;90.10;;;;;;6209531;23;20128;-80
2022/04/26 09:20:11;;;;;;;8.05;1.98;;;15.50;91.30;;;;;;6212751;23;20055;-76
2022/04/26 09:23:00;;;;;;;8.02;1.90;;;15.70;91.10;;;;;;6213269;23;20020;-77
2022/04/26 09:25:27;;;;;;;5.35;2.28;;;16.00;90.80;;;;;;6211093;23;20020;-77
2022/04/26 09:28:08;;;;;;;8.90;2.03;;;16.00;91.60;;;;;;6180280;23;20449;-77
2022/04/26 09:30:35;;;;;;;10.32;2.75;;;16.10;91.10;;;;;;6155057;23;20029;-76
2022/04/26 09:33:01;;;;;;;7.88;2.08;;;15.90;91.60;;;;;;6155010;23;20071;-77
2022/04/26 09:35:32;;;;;;;8.00;2.58;;;15.50;91.30;;;;;;6180032;23;20021;-77
2022/04/26 09:37:59;;;;;;;6.70;1.77;;;15.50;90.70;;;;;;6154032;23;20156;-76
2022/04/26 09:40:29;;;;;;;5.60;2.13;;;15.80;90.70;;;;;;6129974;23;20449;-76
2022/04/26 09:42:58;;;;;;;5.80;1.80;;;15.90;87.20;;;;;;6179860;23;20484;-76
2022/04/26 09:45:27;;;;;;;6.03;2.10;;;16.10;89.30;;;;;;6154827;23;20109;-76
2022/04/26 09:47:57;;;;;;;8.57;2.00;;;16.20;85.10;;;;;;6154630;23;20021;-77
2022/04/26 09:50:25;;;;;;;5.30;1.98;;;16.40;83.50;;;;;;6154908;23;20356;-75
2022/04/26 09:52:55;;;;;;;4.88;2.08;;;16.50;83.60;;;;;;6131840;23;20035;-77
2022/04/26 09:55:22;;;;;;;6.28;2.08;;;16.60;82.60;;;;;;6106332;23;20036;-75
2022/04/26 09:57:49;;;;;;;7.40;2.30;;;16.60;81.10;;;;;;6155683;23;20029;-75
2022/04/26 10:00:19;;;;;;;7.28;2.33;;;16.60;81.00;;;;;;6221065;23;20025;-75
2022/04/26 10:02:56;;;;;;;6.47;2.35;;;16.80;83.10;;;;;;6192750;23;20467;-76
2022/04/26 10:05:25;;;;;;;8.50;2.30;;;16.80;80.00;;;;;;6213665;23;20023;-76
2022/04/26 10:07:54;;;;;;;7.72;1.70;;;17.00;79.50;;;;;;6185316;23;20071;-77
2022/04/26 10:10:20;;;;;;;9.45;2.25;;;17.10;78.50;;;;;;6186002;23;20024;-76
2022/04/26 10:15:37;;;;;;;7.60;2.20;;;17.50;74.50;;;;;;6213093;23;20028;-76
2022/04/26 10:18:32;;;;;;;6.80;2.65;;;17.40;73.30;;;;;;6236751;23;20392;-77
2022/04/26 10:21:03;;;;;;;6.35;2.08;;;17.40;66.50;;;;;;6184849;23;20449;-76
2022/04/26 10:23:52;;;;;;;8.63;2.00;;;17.40;71.30;;;;;;6237734;23;20103;-77
2022/04/26 10:29:14;;;;;;;6.38;1.80;;;17.90;72.90;;;;;;6187607;23;20410;-77
2022/04/26 10:31:55;;;;;;;7.55;1.58;;;18.20;72.30;;;;;;6211634;23;20024;-76
2022/04/26 10:34:28;;;;;;;4.90;1.80;;;18.40;66.70;;;;;;6214463;23;20025;-78
2022/04/26 10:37:11;;;;;;;7.13;1.80;;;18.50;66.60;;;;;;6238018;23;20104;-77
2022/04/26 10:39:49;;;;;;;6.28;2.10;;;18.50;64.00;;;;;;6187688;23;20024;-77
2022/04/26 10:42:19;;;;;;;7.15;2.25;;;18.30;63.70;;;;;;6214607;23;20100;-77
2022/04/26 10:44:51;;;;;;;7.05;1.90;;;18.40;63.40;;;;;;6162689;23;20024;-78
2022/04/26 10:47:25;;;;;;;6.63;1.85;;;18.40;63.00;;;;;;6187378;23;20020;-76
2022/04/26 10:49:53;;;;;;;7.75;2.58;;;18.70;61.00;;;;;;6187035;23;20091;-78
2022/04/26 10:52:19;;;;;;;5.57;1.85;;;18.80;63.00;;;;;;6212327;23;20360;-78
2022/04/26 10:57:21;;;;;;;4.10;1.40;;;19.10;60.10;;;;;;6187505;23;20028;-77
2022/04/26 10:59:59;;;;;;;8.07;1.83;;;19.10;58.70;;;;;;6187210;23;20056;-77
2022/04/26 11:02:28;;;;;;;5.10;1.80;;;19.20;56.90;;;;;;6187288;23;20399;-77
2022/04/26 11:05:13;;;;;;;5.82;1.60;;;19.40;57.70;;;;;;6187379;23;20462;-77
2022/04/26 11:07:42;;;;;;;5.18;1.80;;;19.50;54.50;;;;;;6187046;23;20476;-76
2022/04/26 11:10:10;;;;;;;8.57;1.85;;;19.50;55.20;;;;;;6187313;23;20043;-76
2022/04/26 11:12:38;;;;;;;6.60;2.00;;;19.70;55.70;;;;;;6186966;23;20051;-78
2022/04/26 11:15:15;;;;;;;8.05;2.13;;;19.00;54.40;;;;;;6211223;23;20024;-75
2022/04/26 11:17:57;;;;;;;8.00;2.15;;;19.10;55.10;;;;;;6213825;23;20028;-76
2022/04/26 11:20:26;;;;;;;6.20;1.92;;;19.00;56.00;;;;;;6162010;22;20020;-75
2022/04/26 11:27:59;;;;;;;5.40;1.55;;;19.30;54.30;;;;;;6214188;23;20032;-76
2022/04/26 11:28:34;;;;;;;4.68;1.73;;;19.50;51.80;;;;;;6166962;23;20025;-77
2022/04/26 11:31:04;;;;;;;6.30;2.25;;;19.70;51.60;;;;;;6186729;23;20103;-78
2022/04/26 11:33:32;;;;;;;4.18;2.00;;;19.50;51.30;;;;;;6187174;23;20132;-76
2022/04/26 11:36:06;;;;;;;5.25;1.88;;;19.60;52.00;;;;;;6186986;23;20028;-76
2022/04/26 11:38:36;;;;;;;5.82;1.85;;;19.60;49.30;;;;;;6210870;23;20473;-77
2022/04/26 11:41:03;;;;;;;5.15;1.50;;;19.70;50.40;;;;;;6236474;23;20021;-76
2022/04/26 11:43:42;;;;;;;4.07;1.63;;;19.90;51.10;;;;;;6237558;23;20499;-76
2022/04/26 11:46:19;;;;;;;12.07;2.10;;;20.60;49.00;;;;;;6212305;23;20408;-74
2022/04/26 11:48:48;;;;;;;7.78;2.22;;;20.40;52.10;;;;;;6214064;23;20017;-76
2022/04/26 11:51:15;;;;;;;5.20;1.45;;;20.70;50.20;;;;;;6187204;23;20028;-77
2022/04/26 11:53:43;;;;;;;6.75;1.88;;;20.80;49.00;;;;;;6163383;23;20020;-77
2022/04/26 11:56:09;;;;;;;5.22;1.60;;;20.70;49.20;;;;;;6214277;23;20071;-78
2022/04/26 11:58:41;;;;;;;4.45;1.70;;;20.70;48.60;;;;;;6214092;23;20104;-77
2022/04/26 12:01:18;;;;;;;6.57;2.13;;;20.60;48.40;;;;;;6121074;23;20100;-77
2022/04/26 12:03:54;;;;;;;9.15;2.35;;;21.00;48.30;;;;;;6072843;23;20026;-76
2022/04/26 12:06:31;;;;;;;6.95;1.88;;;21.20;47.10;;;;;;6144472;23;20568;-75
2022/04/26 12:09:05;;;;;;;7.22;1.83;;;20.80;46.40;;;;;;6073025;23;20359;-76
2022/04/26 12:11:36;;;;;;;5.55;1.80;;;21.20;49.10;;;;;;6095675;23;20105;-78
2022/04/26 12:14:16;;;;;;;5.40;1.70;;;21.40;45.90;;;;;;6121229;23;20471;-77
2022/04/26 12:16:49;;;;;;;10.13;2.13;;;21.00;44.90;;;;;;6071621;23;20033;-76
2022/04/26 12:19:16;;;;;;;7.35;2.25;;;20.60;46.40;;;;;;6072851;23;20021;-76
2022/04/26 12:21:49;;;;;;;4.63;2.03;;;20.50;47.50;;;;;;6121261;23;20076;-75
2022/04/26 12:24:17;;;;;;;6.15;2.45;;;20.60;48.30;;;;;;6121431;23;20406;-76
2022/04/26 12:26:53;;;;;;;5.20;2.00;;;20.30;47.40;;;;;;6120605;23;20116;-78
2022/04/26 12:29:19;;;;;;;4.70;1.92;;;20.10;47.40;;;;;;6096797;23;20033;-77
2022/04/26 12:31:47;;;;;;;5.75;1.90;;;19.80;48.10;;;;;;6121144;23;20057;-76
2022/04/26 12:34:22;;;;;;;5.15;2.15;;;19.50;48.30;;;;;;6145839;23;20529;-75
2022/04/26 12:37:07;;;;;;;10.52;2.08;;;19.40;48.70;;;;;;6076502;23;20468;-75
2022/04/26 12:39:48;;;;;;;4.93;1.60;;;19.80;50.60;;;;;;6121354;23;20029;-76
2022/04/26 12:42:34;;;;;;;7.30;1.85;;;19.90;49.40;;;;;;6096573;23;20093;-77
2022/04/26 12:45:22;;;;;;;6.00;1.80;;;19.80;47.70;;;;;;6144350;23;20033;-77
2022/04/26 12:51:17;;;;;;;9.52;3.03;;;19.60;48.00;;;;;;6096443;23;20199;-76
2022/04/26 12:53:44;;;;;;;6.32;1.70;;;19.80;50.60;;;;;;6096498;23;20030;-78
2022/04/26 12:56:12;;;;;;;8.30;1.92;;;20.20;50.00;;;;;;6095994;23;20022;-77
2022/04/26 12:58:40;;;;;;;8.02;1.88;;;19.90;48.60;;;;;;6096260;23;20564;-77
2022/04/26 13:01:07;;;;;;;6.53;2.08;;;19.80;48.40;;;;;;6120715;23;20097;-75
2022/04/26 13:03:34;;;;;;;6.07;2.33;;;19.70;48.50;;;;;;6105821;23;20025;-76
2022/04/26 13:06:08;;;;;;;6.57;2.00;;;19.40;48.20;;;;;;6213296;23;20032;-75
2022/04/26 13:08:35;;;;;;;6.05;1.83;;;19.20;48.50;;;;;;6185976;23;20067;-76
2022/04/26 13:11:01;;;;;;;5.57;1.73;;;18.70;49.30;;;;;;6236547;23;20106;-75
2022/04/26 13:13:27;;;;;;;5.10;1.55;;;18.80;49.80;;;;;;6211750;23;20515;-77
2022/04/26 13:15:57;;;;;;;7.55;1.88;;;19.60;48.90;;;;;;6186477;23;20027;-75
2022/04/26 13:18:23;;;;;;;5.47;1.98;;;19.30;47.50;;;;;;6186062;23;20032;-75
2022/04/26 13:20:57;;;;;;;8.40;2.33;;;18.90;47.00;;;;;;6209257;23;20785;-76
2022/04/26 13:23:45;;;;;;;7.43;1.70;;;18.80;47.90;;;;;;6186382;23;20087;-76
2022/04/26 13:26:12;;;;;;;6.80;2.13;;;18.20;48.90;;;;;;6186052;23;20028;-76
2022/04/26 13:29:01;;;;;;;5.00;1.50;;;18.40;50.10;;;;;;6211144;23;20361;-75
2022/04/26 13:31:27;;;;;;;7.43;2.22;;;18.50;51.00;;;;;;6184450;23;20020;-76
2022/04/26 13:33:54;;;;;;;5.03;1.63;;;18.30;50.60;;;;;;6159678;23;20079;-75
2022/04/26 13:36:20;;;;;;;4.03;1.95;;;18.20;51.20;;;;;;6209928;23;20025;-76
2022/04/26 13:38:46;;;;;;;10.73;3.80;;;17.90;51.40;;;;;;6209922;23;20044;-76
2022/04/26 13:41:31;;;;;;;;;;;18.00;51.70;;;;;;6189108;23;20487;-76
2022/04/26 13:43:58;;;;;;;5.40;1.88;;;17.80;52.20;;;;;;6184744;23;19916;-75
2022/04/26 13:46:27;;;;;;;7.78;1.90;;;17.30;53.20;;;;;;6160199;23;20115;-77
2022/04/26 13:48:54;;;;;;;6.57;1.73;;;17.30;53.50;;;;;;6160056;23;20356;-75
2022/04/26 13:51:29;;;;;;;6.85;1.88;;;17.30;54.20;;;;;;6184368;23;20107;-76
2022/04/26 13:53:55;;;;;;;7.63;1.80;;;17.30;54.70;;;;;;6160012;23;20527;-77
2022/04/26 13:56:24;;;;;;;6.20;1.60;;;17.40;54.20;;;;;;6159793;23;20060;-76
2022/04/26 13:58:55;;;;;;;6.00;1.85;;;17.70;53.60;;;;;;6137338;23;20566;-76
2022/04/26 14:01:23;;;;;;;7.68;1.80;;;18.60;52.40;;;;;;6126714;23;20032;-77
2022/04/26 14:03:52;;;;;;;6.88;1.83;;;20.60;51.00;;;;;;6126976;23;20036;-76
2022/04/26 14:06:21;;;;;;;6.43;1.73;;;22.40;46.40;;;;;;6147563;23;20022;-76
2022/04/26 14:08:49;;;;;;;5.60;1.80;;;22.30;43.80;;;;;;6126635;23;20113;-76
2022/04/26 14:11:24;;;;;;;5.28;1.75;;;21.50;43.50;;;;;;6175491;23;20025;-75
2022/04/26 14:22:21;;;;;;;5.30;1.77;;;20.00;47.20;;;;;;6175930;23;20033;-76
2022/04/26 14:24:53;;;;;;;4.82;1.70;;;21.80;45.90;;;;;;6151428;23;20025;-76
2022/04/26 14:27:20;;;;;;;5.57;2.15;;;23.20;43.50;;;;;;6150735;23;20026;-77
2022/04/26 14:29:48;;;;;;;7.72;1.95;;;24.20;41.70;;;;;;6126725;23;20025;-77
2022/04/26 14:32:16;;;;;;;5.30;1.70;;;25.10;39.80;;;;;;6126220;23;20165;-77
2022/04/26 14:34:52;;;;;;;11.15;2.78;;;25.90;38.50;;;;;;6126991;23;20049;-78
2022/04/26 14:37:25;;;;;;;6.95;2.03;;;26.40;37.90;;;;;;6126401;23;20105;-78
2022/04/26 14:39:52;;;;;;;4.18;1.80;;;26.70;36.60;;;;;;6126862;23;20108;-77
2022/04/26 14:42:19;;;;;;;4.68;2.05;;;26.20;35.40;;;;;;6126360;23;20037;-78
2022/04/26 14:44:47;;;;;;;5.60;2.15;;;26.10;36.20;;;;;;6151695;23;20022;-78
2022/04/26 14:47:13;;;;;;;6.95;1.60;;;26.10;36.40;;;;;;6102168;23;20036;-76
2022/04/26 14:49:41;;;;;;;7.28;2.00;;;25.50;35.50;;;;;;6127013;23;20025;-76
2022/04/26 14:52:16;;;;;;;6.88;2.25;;;25.00;36.30;;;;;;6147847;23;20020;-77
2022/04/26 14:55:07;;;;;;;8.13;2.53;;;24.30;37.10;;;;;;6234405;23;20032;-76
2022/04/26 14:57:34;;;;;;;6.20;1.70;;;24.60;37.80;;;;;;6190898;23;20456;-77
2022/04/26 15:00:01;;;;;;;5.65;1.67;;;25.10;37.20;;;;;;6189958;23;20487;-76
2022/04/26 15:02:51;;;;;;;9.85;1.80;;;25.40;37.00;;;;;;6096089;23;20022;-76
2022/04/26 15:05:18;;;;;;;6.97;1.80;;;26.60;36.20;;;;;;6101811;23;20023;-79
2022/04/26 15:10:29;;;;;;;6.28;1.85;;;27.20;35.00;;;;;;6069036;23;20765;-76
2022/04/26 15:18:28;;;;;;;7.25;1.70;;;27.70;34.20;;;;;;6068402;23;20090;-78
2022/04/26 15:20:54;;;;;;;5.22;1.73;;;27.70;33.70;;;;;;6092444;23;20022;-78
2022/04/26 15:23:21;;;;;;;11.68;1.70;;;27.70;33.70;;;;;;6086735;23;20097;-78
2022/04/26 15:25:52;;;;;;;8.30;2.00;;;27.80;33.40;;;;;;6044294;23;20516;-77
2022/04/26 15:28:21;;;;;;;5.25;1.98;;;27.80;33.40;;;;;;6045794;23;20022;-76
2022/04/26 15:30:49;;;;;;;6.47;1.70;;;27.70;32.80;;;;;;6092765;23;20034;-77
2022/04/26 15:33:38;;;;;;;7.28;2.17;;;27.80;33.10;;;;;;6054084;23;20068;-77
2022/04/26 15:36:04;;;;;;;6.20;1.83;;;28.00;32.70;;;;;;6044616;23;20451;-78
2022/04/26 15:38:49;;;;;;;5.50;1.60;;;27.50;32.70;;;;;;6092373;23;20358;-76
2022/04/26 15:41:16;;;;;;;6.00;1.58;;;27.80;32.90;;;;;;6068004;23;20366;-78
2022/04/26 15:43:42;;;;;;;6.30;1.70;;;27.80;32.40;;;;;;6067910;23;20097;-78
2022/04/26 15:46:13;;;;;;;5.50;1.60;;;27.90;32.00;;;;;;6067040;23;20105;-77
2022/04/26 15:48:39;;;;;;;13.68;2.50;;;28.00;31.80;;;;;;6087565;23;20026;-79
2022/04/26 15:51:09;;;;;;;5.93;1.52;;;28.00;32.00;;;;;;6068318;23;20340;-77
2022/04/26 15:53:35;;;;;;;7.00;2.05;;;27.90;32.10;;;;;;6133277;23;20457;-78
2022/04/26 15:56:01;;;;;;;5.00;1.40;;;27.50;32.20;;;;;;6183766;23;20027;-77
2022/04/26 15:58:26;;;;;;;7.13;1.90;;;27.20;32.80;;;;;;6181842;23;20472;-77
2022/04/26 16:00:55;;;;;;;4.70;1.58;;;27.30;32.70;;;;;;6181817;23;20396;-79
2022/04/26 16:03:21;;;;;;;5.40;1.90;;;26.40;33.30;;;;;;6207010;23;20028;-78
2022/04/26 16:05:49;;;;;;;6.50;1.98;;;26.30;33.80;;;;;;6157097;23;20033;-76
2022/04/26 16:08:15;;;;;;;6.03;1.73;;;25.20;34.60;;;;;;6206471;23;20021;-77
2022/04/26 16:21:41;;;;;;;4.25;1.67;;;22.30;38.90;;;;;;6163845;23;20028;-77
2022/04/26 16:24:07;;;;;;;5.88;1.83;;;21.60;40.30;;;;;;6186617;23;20024;-77
2022/04/26 16:26:35;;;;;;;5.45;2.13;;;21.40;40.60;;;;;;6211392;23;20354;-77
2022/04/26 16:29:08;;;;;;;6.97;1.50;;;20.90;41.70;;;;;;6186484;23;20361;-76
2022/04/26 16:31:34;;;;;;;7.65;1.52;;;20.40;42.10;;;;;;6211376;23;20024;-76
2022/04/26 16:34:27;;;;;;;11.85;1.95;;;20.40;42.50;;;;;;6235267;23;20359;-76
2022/04/26 16:36:54;;;;;;;7.10;1.67;;;20.20;43.30;;;;;;6184855;23;20075;-76
2022/04/26 16:39:26;;;;;;;5.50;1.77;;;19.60;44.00;;;;;;6159729;23;20102;-76
2022/04/26 16:41:52;;;;;;;5.75;1.52;;;19.20;44.90;;;;;;6156847;23;20024;-76
2022/04/26 16:44:18;;;;;;;8.00;1.85;;;19.10;45.30;;;;;;6154923;23;20365;-76
2022/04/26 16:46:44;;;;;;;4.72;1.60;;;19.40;44.00;;;;;;6179979;23;20040;-77
2022/04/26 16:49:11;;;;;;;5.20;1.52;;;19.30;43.40;;;;;;6155267;23;20021;-76
2022/04/26 16:51:40;;;;;;;7.13;1.75;;;19.00;44.20;;;;;;6155991;23;20502;-76
2022/04/26 16:54:07;;;;;;;4.35;1.40;;;18.70;45.20;;;;;;6154800;23;20056;-76
2022/04/26 16:56:37;;;;;;;6.95;1.60;;;18.50;45.80;;;;;;6105411;23;20373;-75
2022/04/26 16:59:03;;;;;;;7.03;1.60;;;18.20;46.30;;;;;;6154689;23;20031;-76
2022/04/26 17:01:30;;;;;;;6.82;1.55;;;17.80;46.50;;;;;;6154364;23;20021;-76
2022/04/26 17:04:03;;;;;;;4.82;1.58;;;17.60;46.70;;;;;;6154989;23;20036;-76
2022/04/26 17:06:32;;;;;;;6.20;1.20;;;17.20;47.10;;;;;;6154948;23;20552;-76
2022/04/26 17:08:58;;;;;;;5.63;1.38;;;17.10;47.60;;;;;;6107179;23;20076;-75
2022/04/26 17:14:14;;;;;;;8.25;2.10;;;16.70;48.20;;;;;;6179208;23;20025;-74
2022/04/26 17:16:45;;;;;;;4.00;1.37;;;16.30;48.00;;;;;;6185934;23;20021;-73
2022/04/26 17:19:16;;;;;;;5.50;1.35;;;16.00;47.00;;;;;;6186224;23;20460;-75
2022/04/26 17:21:46;;;;;;;7.43;1.50;;;15.90;47.40;;;;;;6164336;23;20059;-74
2022/04/26 17:27:24;;;;;;;8.93;2.20;;;15.60;50.60;;;;;;6186140;23;20025;-76
2022/04/26 17:29:50;;;;;;;7.80;1.73;;;15.30;51.10;;;;;;6236297;23;20021;-75
2022/04/26 17:32:17;;;;;;;4.53;1.63;;;15.10;51.20;;;;;;6187135;23;20094;-75
2022/04/26 17:35:00;;;;;;;8.95;1.67;;;15.00;51.90;;;;;;6212068;23;20023;-77
2022/04/26 17:37:27;;;;;;;9.15;2.38;;;14.90;52.90;;;;;;6187945;23;20411;-76
2022/04/26 17:39:54;;;;;;;7.07;1.65;;;14.60;55.30;;;;;;6238190;23;20108;-73